Current Weather

Greater Kankakee Airport

Greater Kankakee Airport, Illinois (KIKK)

Report from: Monday, May 23, 2022 3:56 AM CDT
Current time: Monday, May 23, 2022 4:21 AM CDT

Nearby weather
Weather history
Weather forecast

Temperature8.0°C (46.4°F)
Wind chill7.3°C (45.2°F)
Dew point6.0°C (42.8°F)
Winds 3 kts (1.5 m/s, 3.5 mph) East (80°)
Visibility10 mi. (16.1 km)
Clouds Sky clear
Altimeter30.35 in.Hg (1028 mB)
Relative humidity87 %
Density altitude-1,196 ft. (-365 m)
Remarks Fully automated report
Automated weather observing station with precipitation discriminator
Flight conditions Visual Meteorological Conditions
Raw dataKIKK 230856Z AUTO 08003KT 10SM CLR 08/06 A3035 RMK AO2
An error has occurred. This application may no longer respond until reloaded. Reload 🗙